sensor_id;sensor_type;location;lat;lon;timestamp;temperature;humidity
68274;SHT30;55104;47.356;19.448;2023-02-14T00:01:32;-2.23;93.47
68274;SHT30;55104;47.356;19.448;2023-02-14T00:04:34;-2.27;93.82
68274;SHT30;55104;47.356;19.448;2023-02-14T00:07:39;-2.30;93.73
68274;SHT30;55104;47.356;19.448;2023-02-14T00:10:41;-2.30;93.92
68274;SHT30;55104;47.356;19.448;2023-02-14T00:13:43;-2.36;93.36
68274;SHT30;55104;47.356;19.448;2023-02-14T00:17:05;-2.34;93.96
68274;SHT30;55104;47.356;19.448;2023-02-14T00:20:08;-2.33;93.97
68274;SHT30;55104;47.356;19.448;2023-02-14T00:23:10;-2.27;93.78
68274;SHT30;55104;47.356;19.448;2023-02-14T00:26:13;-2.32;93.59
68274;SHT30;55104;47.356;19.448;2023-02-14T00:29:22;-2.32;93.57
68274;SHT30;55104;47.356;19.448;2023-02-14T00:32:24;-2.33;93.28
68274;SHT30;55104;47.356;19.448;2023-02-14T00:35:27;-2.36;93.04
68274;SHT30;55104;47.356;19.448;2023-02-14T00:38:29;-2.38;93.31
68274;SHT30;55104;47.356;19.448;2023-02-14T00:41:32;-2.48;92.83
68274;SHT30;55104;47.356;19.448;2023-02-14T00:44:34;-2.48;93.71
68274;SHT30;55104;47.356;19.448;2023-02-14T00:47:37;-2.44;93.59
68274;SHT30;55104;47.356;19.448;2023-02-14T00:50:39;-2.38;93.65
68274;SHT30;55104;47.356;19.448;2023-02-14T00:53:41;-2.36;93.47
68274;SHT30;55104;47.356;19.448;2023-02-14T00:56:43;-2.45;92.49
68274;SHT30;55104;47.356;19.448;2023-02-14T00:59:45;-2.51;92.72
68274;SHT30;55104;47.356;19.448;2023-02-14T01:02:47;-2.54;92.96
68274;SHT30;55104;47.356;19.448;2023-02-14T01:05:50;-2.57;93.29
68274;SHT30;55104;47.356;19.448;2023-02-14T01:08:52;-2.50;92.77
68274;SHT30;55104;47.356;19.448;2023-02-14T01:11:54;-2.61;92.01
68274;SHT30;55104;47.356;19.448;2023-02-14T01:14:56;-2.69;92.84
68274;SHT30;55104;47.356;19.448;2023-02-14T01:17:59;-2.66;93.17
68274;SHT30;55104;47.356;19.448;2023-02-14T01:21:15;-2.68;93.01
68274;SHT30;55104;47.356;19.448;2023-02-14T01:24:17;-2.69;92.86
68274;SHT30;55104;47.356;19.448;2023-02-14T01:27:19;-2.73;92.97
68274;SHT30;55104;47.356;19.448;2023-02-14T01:30:22;-2.79;92.28
68274;SHT30;55104;47.356;19.448;2023-02-14T01:33:24;-2.79;93.07
68274;SHT30;55104;47.356;19.448;2023-02-14T01:36:37;-2.79;93.72
68274;SHT30;55104;47.356;19.448;2023-02-14T01:39:40;-2.76;93.90
68274;SHT30;55104;47.356;19.448;2023-02-14T01:42:42;-2.78;93.91
68274;SHT30;55104;47.356;19.448;2023-02-14T01:45:44;-2.79;93.90
68274;SHT30;55104;47.356;19.448;2023-02-14T01:48:47;-2.79;94.03
68274;SHT30;55104;47.356;19.448;2023-02-14T01:52:01;-2.82;93.94
68274;SHT30;55104;47.356;19.448;2023-02-14T01:55:09;-2.83;94.07
68274;SHT30;55104;47.356;19.448;2023-02-14T01:58:23;-2.85;93.69
68274;SHT30;55104;47.356;19.448;2023-02-14T02:01:28;-2.93;93.20
68274;SHT30;55104;47.356;19.448;2023-02-14T02:04:37;-2.95;93.02
68274;SHT30;55104;47.356;19.448;2023-02-14T02:07:39;-2.96;92.67
68274;SHT30;55104;47.356;19.448;2023-02-14T02:10:42;-2.96;93.05
68274;SHT30;55104;47.356;19.448;2023-02-14T02:13:44;-2.93;92.99
68274;SHT30;55104;47.356;19.448;2023-02-14T02:16:58;-2.91;92.55
68274;SHT30;55104;47.356;19.448;2023-02-14T02:27:47;-3.02;92.70
68274;SHT30;55104;47.356;19.448;2023-02-14T02:47:56;-3.00;92.69
68274;SHT30;55104;47.356;19.448;2023-02-14T02:51:00;-3.04;93.13
68274;SHT30;55104;47.356;19.448;2023-02-14T02:54:33;-3.07;92.52
68274;SHT30;55104;47.356;19.448;2023-02-14T02:57:39;-3.10;93.20
68274;SHT30;55104;47.356;19.448;2023-02-14T03:00:43;-3.13;93.45
68274;SHT30;55104;47.356;19.448;2023-02-14T03:03:47;-3.17;92.87
68274;SHT30;55104;47.356;19.448;2023-02-14T03:07:09;-3.17;93.07
68274;SHT30;55104;47.356;19.448;2023-02-14T03:10:34;-3.19;93.28
68274;SHT30;55104;47.356;19.448;2023-02-14T03:14:27;-3.23;93.19
68274;SHT30;55104;47.356;19.448;2023-02-14T03:20:59;-3.23;93.00
68274;SHT30;55104;47.356;19.448;2023-02-14T03:24:25;-3.31;92.45
68274;SHT30;55104;47.356;19.448;2023-02-14T03:27:37;-3.30;93.15
68274;SHT30;55104;47.356;19.448;2023-02-14T03:34:16;-3.21;93.31
68274;SHT30;55104;47.356;19.448;2023-02-14T03:37:30;-3.21;93.65
68274;SHT30;55104;47.356;19.448;2023-02-14T03:40:54;-3.13;93.81
68274;SHT30;55104;47.356;19.448;2023-02-14T03:44:02;-3.10;93.50
68274;SHT30;55104;47.356;19.448;2023-02-14T03:47:11;-3.03;94.84
68274;SHT30;55104;47.356;19.448;2023-02-14T03:50:19;-3.09;94.39
68274;SHT30;55104;47.356;19.448;2023-02-14T03:53:24;-3.16;94.01
68274;SHT30;55104;47.356;19.448;2023-02-14T03:56:41;-3.17;94.02
68274;SHT30;55104;47.356;19.448;2023-02-14T03:59:47;-3.16;94.13
68274;SHT30;55104;47.356;19.448;2023-02-14T04:02:55;-3.13;94.44
68274;SHT30;55104;47.356;19.448;2023-02-14T04:05:59;-3.10;94.57
68274;SHT30;55104;47.356;19.448;2023-02-14T04:09:02;-3.11;94.42
68274;SHT30;55104;47.356;19.448;2023-02-14T04:12:04;-3.06;95.46
68274;SHT30;55104;47.356;19.448;2023-02-14T04:15:06;-3.00;95.35
68274;SHT30;55104;47.356;19.448;2023-02-14T04:18:09;-3.02;95.92
68274;SHT30;55104;47.356;19.448;2023-02-14T04:21:29;-3.03;95.66
68274;SHT30;55104;47.356;19.448;2023-02-14T04:24:31;-3.07;95.32
68274;SHT30;55104;47.356;19.448;2023-02-14T04:27:33;-3.16;95.00
68274;SHT30;55104;47.356;19.448;2023-02-14T04:30:36;-3.19;95.13
68274;SHT30;55104;47.356;19.448;2023-02-14T04:33:38;-3.23;95.30
68274;SHT30;55104;47.356;19.448;2023-02-14T04:36:40;-3.26;95.26
68274;SHT30;55104;47.356;19.448;2023-02-14T04:39:42;-3.28;95.06
68274;SHT30;55104;47.356;19.448;2023-02-14T04:42:45;-3.33;95.70
68274;SHT30;55104;47.356;19.448;2023-02-14T04:45:47;-3.30;95.07
68274;SHT30;55104;47.356;19.448;2023-02-14T04:48:49;-3.37;94.46
68274;SHT30;55104;47.356;19.448;2023-02-14T04:51:52;-3.43;94.26
68274;SHT30;55104;47.356;19.448;2023-02-14T04:54:54;-3.44;94.33
68274;SHT30;55104;47.356;19.448;2023-02-14T04:57:56;-3.38;94.36
68274;SHT30;55104;47.356;19.448;2023-02-14T05:00:58;-3.44;93.93
68274;SHT30;55104;47.356;19.448;2023-02-14T05:04:01;-3.44;93.67
68274;SHT30;55104;47.356;19.448;2023-02-14T05:07:03;-3.48;93.82
68274;SHT30;55104;47.356;19.448;2023-02-14T05:10:05;-3.50;93.60
68274;SHT30;55104;47.356;19.448;2023-02-14T05:13:08;-3.46;94.25
68274;SHT30;55104;47.356;19.448;2023-02-14T05:16:10;-3.43;93.78
68274;SHT30;55104;47.356;19.448;2023-02-14T05:19:12;-3.43;93.60
68274;SHT30;55104;47.356;19.448;2023-02-14T05:22:15;-3.50;93.20
68274;SHT30;55104;47.356;19.448;2023-02-14T05:25:19;-3.44;93.24
68274;SHT30;55104;47.356;19.448;2023-02-14T05:28:21;-3.52;93.21
68274;SHT30;55104;47.356;19.448;2023-02-14T05:31:23;-3.54;93.20
68274;SHT30;55104;47.356;19.448;2023-02-14T05:34:26;-3.54;93.57
68274;SHT30;55104;47.356;19.448;2023-02-14T05:37:28;-3.52;93.62
68274;SHT30;55104;47.356;19.448;2023-02-14T05:40:30;-3.47;94.05
68274;SHT30;55104;47.356;19.448;2023-02-14T05:43:32;-3.38;94.02
68274;SHT30;55104;47.356;19.448;2023-02-14T05:46:34;-3.43;93.53
68274;SHT30;55104;47.356;19.448;2023-02-14T05:49:37;-3.47;93.29
68274;SHT30;55104;47.356;19.448;2023-02-14T05:52:39;-3.51;93.13
68274;SHT30;55104;47.356;19.448;2023-02-14T05:55:41;-3.48;93.42
68274;SHT30;55104;47.356;19.448;2023-02-14T05:58:43;-3.48;93.16
68274;SHT30;55104;47.356;19.448;2023-02-14T06:01:45;-3.41;93.49
68274;SHT30;55104;47.356;19.448;2023-02-14T06:04:47;-3.38;94.33
68274;SHT30;55104;47.356;19.448;2023-02-14T06:07:50;-3.34;94.01
68274;SHT30;55104;47.356;19.448;2023-02-14T06:10:52;-3.33;94.68
68274;SHT30;55104;47.356;19.448;2023-02-14T06:13:54;-3.31;94.24
68274;SHT30;55104;47.356;19.448;2023-02-14T06:16:56;-3.27;93.95
68274;SHT30;55104;47.356;19.448;2023-02-14T06:19:58;-3.23;93.99
68274;SHT30;55104;47.356;19.448;2023-02-14T06:23:00;-3.21;93.65
68274;SHT30;55104;47.356;19.448;2023-02-14T06:26:03;-3.14;93.94
68274;SHT30;55104;47.356;19.448;2023-02-14T06:29:05;-3.04;94.07
68274;SHT30;55104;47.356;19.448;2023-02-14T06:32:07;-2.96;94.13
68274;SHT30;55104;47.356;19.448;2023-02-14T06:35:09;-2.92;93.90
68274;SHT30;55104;47.356;19.448;2023-02-14T06:38:11;-2.83;93.79
68274;SHT30;55104;47.356;19.448;2023-02-14T06:41:14;-2.76;93.78
68274;SHT30;55104;47.356;19.448;2023-02-14T06:44:18;-2.72;93.68
68274;SHT30;55104;47.356;19.448;2023-02-14T06:47:20;-2.47;93.95
68274;SHT30;55104;47.356;19.448;2023-02-14T06:50:22;-2.38;94.57
68274;SHT30;55104;47.356;19.448;2023-02-14T06:53:24;-2.34;94.28
68274;SHT30;55104;47.356;19.448;2023-02-14T06:56:26;-2.26;94.21
68274;SHT30;55104;47.356;19.448;2023-02-14T06:59:28;-2.14;94.47
68274;SHT30;55104;47.356;19.448;2023-02-14T07:02:30;-2.06;94.31
68274;SHT30;55104;47.356;19.448;2023-02-14T07:05:33;-1.60;96.61
68274;SHT30;55104;47.356;19.448;2023-02-14T07:08:36;-1.13;97.46
68274;SHT30;55104;47.356;19.448;2023-02-14T07:11:38;-0.69;97.71
68274;SHT30;55104;47.356;19.448;2023-02-14T07:14:40;-0.49;97.10
68274;SHT30;55104;47.356;19.448;2023-02-14T07:17:42;-0.19;96.92
68274;SHT30;55104;47.356;19.448;2023-02-14T07:20:45;0.05;96.48
68274;SHT30;55104;47.356;19.448;2023-02-14T07:23:47;0.14;96.24
68274;SHT30;55104;47.356;19.448;2023-02-14T07:26:50;0.36;95.78
68274;SHT30;55104;47.356;19.448;2023-02-14T07:29:52;0.54;95.36
68274;SHT30;55104;47.356;19.448;2023-02-14T07:32:56;0.70;95.11
68274;SHT30;55104;47.356;19.448;2023-02-14T07:36:03;0.76;94.97
68274;SHT30;55104;47.356;19.448;2023-02-14T07:39:06;0.84;94.71
68274;SHT30;55104;47.356;19.448;2023-02-14T07:42:08;0.95;94.09
68274;SHT30;55104;47.356;19.448;2023-02-14T07:45:12;1.02;93.80
68274;SHT30;55104;47.356;19.448;2023-02-14T07:48:22;1.32;92.61
68274;SHT30;55104;47.356;19.448;2023-02-14T07:51:25;1.50;92.02
68274;SHT30;55104;47.356;19.448;2023-02-14T07:54:28;1.56;91.56
68274;SHT30;55104;47.356;19.448;2023-02-14T07:57:30;1.68;90.83
68274;SHT30;55104;47.356;19.448;2023-02-14T08:00:32;1.90;89.58
68274;SHT30;55104;47.356;19.448;2023-02-14T08:03:34;2.02;89.07
68274;SHT30;55104;47.356;19.448;2023-02-14T08:06:36;2.11;88.74
68274;SHT30;55104;47.356;19.448;2023-02-14T08:09:38;2.21;89.07
68274;SHT30;55104;47.356;19.448;2023-02-14T08:12:41;2.35;88.31
68274;SHT30;55104;47.356;19.448;2023-02-14T08:16:01;2.49;87.38
68274;SHT30;55104;47.356;19.448;2023-02-14T08:19:06;2.60;86.34
68274;SHT30;55104;47.356;19.448;2023-02-14T08:22:08;2.76;85.65
68274;SHT30;55104;47.356;19.448;2023-02-14T08:25:10;2.79;86.00
68274;SHT30;55104;47.356;19.448;2023-02-14T08:28:12;2.83;86.96
68274;SHT30;55104;47.356;19.448;2023-02-14T08:31:24;2.98;86.63
68274;SHT30;55104;47.356;19.448;2023-02-14T08:34:36;3.00;86.04
68274;SHT30;55104;47.356;19.448;2023-02-14T08:37:38;3.21;84.41
68274;SHT30;55104;47.356;19.448;2023-02-14T08:40:40;3.36;83.97
68274;SHT30;55104;47.356;19.448;2023-02-14T08:43:43;3.44;83.82
68274;SHT30;55104;47.356;19.448;2023-02-14T08:46:45;3.50;83.71
68274;SHT30;55104;47.356;19.448;2023-02-14T08:49:48;3.60;84.45
68274;SHT30;55104;47.356;19.448;2023-02-14T08:52:51;3.66;83.25
68274;SHT30;55104;47.356;19.448;2023-02-14T08:55:53;3.77;83.10
68274;SHT30;55104;47.356;19.448;2023-02-14T08:58:55;3.90;82.46
68274;SHT30;55104;47.356;19.448;2023-02-14T09:01:57;4.02;82.58
68274;SHT30;55104;47.356;19.448;2023-02-14T09:05:00;4.12;82.84
68274;SHT30;55104;47.356;19.448;2023-02-14T09:08:02;4.22;81.70
68274;SHT30;55104;47.356;19.448;2023-02-14T09:11:08;4.33;82.47
68274;SHT30;55104;47.356;19.448;2023-02-14T09:14:11;4.45;82.13
68274;SHT30;55104;47.356;19.448;2023-02-14T09:17:13;4.57;80.29
68274;SHT30;55104;47.356;19.448;2023-02-14T09:20:16;4.88;80.74
68274;SHT30;55104;47.356;19.448;2023-02-14T09:23:18;4.98;79.08
68274;SHT30;55104;47.356;19.448;2023-02-14T09:26:20;5.09;78.65
68274;SHT30;55104;47.356;19.448;2023-02-14T09:29:24;5.16;79.42
68274;SHT30;55104;47.356;19.448;2023-02-14T09:32:26;5.26;77.50
68274;SHT30;55104;47.356;19.448;2023-02-14T09:35:31;5.38;78.03
68274;SHT30;55104;47.356;19.448;2023-02-14T09:38:51;5.47;76.74
68274;SHT30;55104;47.356;19.448;2023-02-14T09:41:57;5.69;77.77
68274;SHT30;55104;47.356;19.448;2023-02-14T09:48:25;6.02;76.31
68274;SHT30;55104;47.356;19.448;2023-02-14T09:51:30;6.06;74.82
68274;SHT30;55104;47.356;19.448;2023-02-14T09:54:34;6.32;75.37
68274;SHT30;55104;47.356;19.448;2023-02-14T09:58:04;6.58;74.83
68274;SHT30;55104;47.356;19.448;2023-02-14T10:04:41;6.84;72.66
68274;SHT30;55104;47.356;19.448;2023-02-14T10:07:55;6.94;71.21
68274;SHT30;55104;47.356;19.448;2023-02-14T10:11:11;7.02;70.37
68274;SHT30;55104;47.356;19.448;2023-02-14T10:14:16;7.14;70.87
68274;SHT30;55104;47.356;19.448;2023-02-14T10:17:41;7.45;70.15
68274;SHT30;55104;47.356;19.448;2023-02-14T10:20:57;7.16;69.32
68274;SHT30;55104;47.356;19.448;2023-02-14T10:24:10;6.95;69.57
68274;SHT30;55104;47.356;19.448;2023-02-14T10:27:36;7.12;71.22
68274;SHT30;55104;47.356;19.448;2023-02-14T10:30:56;7.39;68.93
68274;SHT30;55104;47.356;19.448;2023-02-14T10:34:18;7.50;67.94
68274;SHT30;55104;47.356;19.448;2023-02-14T10:57:23;7.54;66.24
68274;SHT30;55104;47.356;19.448;2023-02-14T11:00:31;7.80;66.36
68274;SHT30;55104;47.356;19.448;2023-02-14T11:03:35;8.15;67.55
68274;SHT30;55104;47.356;19.448;2023-02-14T11:06:38;8.49;65.69
68274;SHT30;55104;47.356;19.448;2023-02-14T11:09:41;8.19;64.53
68274;SHT30;55104;47.356;19.448;2023-02-14T11:12:43;8.53;66.07
68274;SHT30;55104;47.356;19.448;2023-02-14T11:15:45;8.68;64.44
68274;SHT30;55104;47.356;19.448;2023-02-14T11:19:07;8.68;63.17
68274;SHT30;55104;47.356;19.448;2023-02-14T11:22:11;8.56;64.70
68274;SHT30;55104;47.356;19.448;2023-02-14T11:25:30;8.71;65.16
68274;SHT30;55104;47.356;19.448;2023-02-14T11:28:33;8.84;64.41
68274;SHT30;55104;47.356;19.448;2023-02-14T11:31:37;9.07;63.56
68274;SHT30;55104;47.356;19.448;2023-02-14T11:34:43;9.09;63.11
68274;SHT30;55104;47.356;19.448;2023-02-14T11:37:50;9.21;63.01
68274;SHT30;55104;47.356;19.448;2023-02-14T11:40:56;9.09;62.06
68274;SHT30;55104;47.356;19.448;2023-02-14T11:44:13;9.33;62.10
68274;SHT30;55104;47.356;19.448;2023-02-14T11:47:27;9.22;62.35
68274;SHT30;55104;47.356;19.448;2023-02-14T11:50:29;9.28;62.27
68274;SHT30;55104;47.356;19.448;2023-02-14T11:53:52;8.85;61.28
68274;SHT30;55104;47.356;19.448;2023-02-14T11:57:10;8.70;62.22
68274;SHT30;55104;47.356;19.448;2023-02-14T12:00:16;8.67;62.28
68274;SHT30;55104;47.356;19.448;2023-02-14T12:03:19;8.83;62.97
68274;SHT30;55104;47.356;19.448;2023-02-14T12:06:26;9.12;62.68
68274;SHT30;55104;47.356;19.448;2023-02-14T12:09:30;9.15;62.04
68274;SHT30;55104;47.356;19.448;2023-02-14T12:12:33;9.08;61.56
68274;SHT30;55104;47.356;19.448;2023-02-14T12:18:46;9.19;61.72
68274;SHT30;55104;47.356;19.448;2023-02-14T12:22:00;9.43;60.52
68274;SHT30;55104;47.356;19.448;2023-02-14T12:25:13;9.36;60.30
68274;SHT30;55104;47.356;19.448;2023-02-14T12:28:27;9.40;60.37
68274;SHT30;55104;47.356;19.448;2023-02-14T12:31:31;9.30;59.49
68274;SHT30;55104;47.356;19.448;2023-02-14T12:34:34;9.21;59.42
68274;SHT30;55104;47.356;19.448;2023-02-14T12:41:28;8.89;60.34
68274;SHT30;55104;47.356;19.448;2023-02-14T12:44:49;9.18;60.97
68274;SHT30;55104;47.356;19.448;2023-02-14T12:52:02;9.19;59.96
68274;SHT30;55104;47.356;19.448;2023-02-14T12:54:41;9.26;60.13
68274;SHT30;55104;47.356;19.448;2023-02-14T13:01:28;9.56;59.15
68274;SHT30;55104;47.356;19.448;2023-02-14T13:18:42;9.47;58.18
68274;SHT30;55104;47.356;19.448;2023-02-14T13:21:48;9.56;58.31
68274;SHT30;55104;47.356;19.448;2023-02-14T13:24:56;9.40;57.61
68274;SHT30;55104;47.356;19.448;2023-02-14T13:28:02;9.50;57.89
68274;SHT30;55104;47.356;19.448;2023-02-14T13:31:05;9.60;57.53
68274;SHT30;55104;47.356;19.448;2023-02-14T13:34:27;9.43;57.18
68274;SHT30;55104;47.356;19.448;2023-02-14T13:37:32;9.43;58.05
68274;SHT30;55104;47.356;19.448;2023-02-14T13:40:34;9.21;59.61
68274;SHT30;55104;47.356;19.448;2023-02-14T13:44:00;9.18;60.01
68274;SHT30;55104;47.356;19.448;2023-02-14T13:47:17;9.11;60.07
68274;SHT30;55104;47.356;19.448;2023-02-14T13:50:20;8.97;60.49
68274;SHT30;55104;47.356;19.448;2023-02-14T13:53:34;9.01;61.09
68274;SHT30;55104;47.356;19.448;2023-02-14T13:56:37;9.01;60.83
68274;SHT30;55104;47.356;19.448;2023-02-14T13:59:39;8.80;60.59
68274;SHT30;55104;47.356;19.448;2023-02-14T14:09:02;8.80;61.60
68274;SHT30;55104;47.356;19.448;2023-02-14T14:15:29;8.57;61.96
68274;SHT30;55104;47.356;19.448;2023-02-14T14:18:36;8.54;62.50
68274;SHT30;55104;47.356;19.448;2023-02-14T14:21:44;8.45;62.93
68274;SHT30;55104;47.356;19.448;2023-02-14T14:25:02;8.35;62.97
68274;SHT30;55104;47.356;19.448;2023-02-14T14:28:20;8.12;63.34
68274;SHT30;55104;47.356;19.448;2023-02-14T14:31:23;8.08;64.10
68274;SHT30;55104;47.356;19.448;2023-02-14T14:34:26;8.13;63.85
68274;SHT30;55104;47.356;19.448;2023-02-14T14:37:32;7.99;63.78
68274;SHT30;55104;47.356;19.448;2023-02-14T14:40:36;8.01;63.99
68274;SHT30;55104;47.356;19.448;2023-02-14T14:43:39;7.99;64.03
68274;SHT30;55104;47.356;19.448;2023-02-14T14:46:41;7.92;64.82
68274;SHT30;55104;47.356;19.448;2023-02-14T14:49:43;7.80;64.87
68274;SHT30;55104;47.356;19.448;2023-02-14T14:52:48;7.73;65.09
68274;SHT30;55104;47.356;19.448;2023-02-14T14:55:52;7.62;65.58
68274;SHT30;55104;47.356;19.448;2023-02-14T14:58:56;7.62;65.76
68274;SHT30;55104;47.356;19.448;2023-02-14T15:01:58;7.49;66.45
68274;SHT30;55104;47.356;19.448;2023-02-14T15:05:23;7.30;67.02
68274;SHT30;55104;47.356;19.448;2023-02-14T15:08:28;7.15;67.25
68274;SHT30;55104;47.356;19.448;2023-02-14T15:11:33;7.16;67.30
68274;SHT30;55104;47.356;19.448;2023-02-14T15:14:55;7.05;67.91
68274;SHT30;55104;47.356;19.448;2023-02-14T15:17:57;6.99;67.80
68274;SHT30;55104;47.356;19.448;2023-02-14T15:21:01;6.84;68.59
68274;SHT30;55104;47.356;19.448;2023-02-14T15:24:10;6.83;68.34
68274;SHT30;55104;47.356;19.448;2023-02-14T15:27:16;6.90;67.78
68274;SHT30;55104;47.356;19.448;2023-02-14T15:33:21;6.80;68.36
68274;SHT30;55104;47.356;19.448;2023-02-14T15:36:23;6.70;68.62
68274;SHT30;55104;47.356;19.448;2023-02-14T15:39:34;6.56;68.95
68274;SHT30;55104;47.356;19.448;2023-02-14T15:42:42;6.35;69.86
68274;SHT30;55104;47.356;19.448;2023-02-14T15:45:45;6.25;70.10
68274;SHT30;55104;47.356;19.448;2023-02-14T15:48:51;6.11;70.41
68274;SHT30;55104;47.356;19.448;2023-02-14T15:51:54;6.09;70.81
68274;SHT30;55104;47.356;19.448;2023-02-14T15:54:56;5.97;71.17
68274;SHT30;55104;47.356;19.448;2023-02-14T15:58:02;5.77;71.80
68274;SHT30;55104;47.356;19.448;2023-02-14T16:01:06;5.53;72.74
68274;SHT30;55104;47.356;19.448;2023-02-14T16:04:09;5.25;73.54
68274;SHT30;55104;47.356;19.448;2023-02-14T16:07:27;5.04;74.33
68274;SHT30;55104;47.356;19.448;2023-02-14T16:10:36;4.83;75.26
68274;SHT30;55104;47.356;19.448;2023-02-14T16:13:41;4.66;75.70
68274;SHT30;55104;47.356;19.448;2023-02-14T16:17:29;4.48;76.46
68274;SHT30;55104;47.356;19.448;2023-02-14T16:23:37;4.13;77.69
68274;SHT30;55104;47.356;19.448;2023-02-14T16:26:42;3.99;78.25
68274;SHT30;55104;47.356;19.448;2023-02-14T16:29:44;3.84;78.73
68274;SHT30;55104;47.356;19.448;2023-02-14T16:32:49;3.66;79.36
68274;SHT30;55104;47.356;19.448;2023-02-14T16:36:42;3.56;79.80
68274;SHT30;55104;47.356;19.448;2023-02-14T16:39:21;3.42;80.33
68274;SHT30;55104;47.356;19.448;2023-02-14T16:42:26;3.28;80.89
68274;SHT30;55104;47.356;19.448;2023-02-14T16:45:28;3.11;81.17
68274;SHT30;55104;47.356;19.448;2023-02-14T16:48:30;3.00;81.48
68274;SHT30;55104;47.356;19.448;2023-02-14T16:51:34;2.95;81.73
68274;SHT30;55104;47.356;19.448;2023-02-14T16:54:37;2.85;81.66
68274;SHT30;55104;47.356;19.448;2023-02-14T16:57:42;2.77;81.81
68274;SHT30;55104;47.356;19.448;2023-02-14T17:00:46;2.70;81.97
68274;SHT30;55104;47.356;19.448;2023-02-14T17:03:48;2.58;82.31
68274;SHT30;55104;47.356;19.448;2023-02-14T17:06:53;2.47;82.47
68274;SHT30;55104;47.356;19.448;2023-02-14T17:10:07;2.42;82.98
68274;SHT30;55104;47.356;19.448;2023-02-14T17:13:11;2.30;82.66
68274;SHT30;55104;47.356;19.448;2023-02-14T17:16:14;2.18;82.98
68274;SHT30;55104;47.356;19.448;2023-02-14T17:19:17;2.04;83.24
68274;SHT30;55104;47.356;19.448;2023-02-14T17:22:20;1.97;83.71
68274;SHT30;55104;47.356;19.448;2023-02-14T17:25:22;1.88;83.26
68274;SHT30;55104;47.356;19.448;2023-02-14T17:28:25;1.78;83.50
68274;SHT30;55104;47.356;19.448;2023-02-14T17:31:27;1.67;84.28
68274;SHT30;55104;47.356;19.448;2023-02-14T17:34:33;1.64;84.46
68274;SHT30;55104;47.356;19.448;2023-02-14T17:37:35;1.60;84.65
68274;SHT30;55104;47.356;19.448;2023-02-14T17:40:38;1.52;84.72
68274;SHT30;55104;47.356;19.448;2023-02-14T17:43:41;1.45;85.05
68274;SHT30;55104;47.356;19.448;2023-02-14T17:46:43;1.31;85.20
68274;SHT30;55104;47.356;19.448;2023-02-14T17:49:46;1.22;85.57
68274;SHT30;55104;47.356;19.448;2023-02-14T17:52:54;1.21;85.67
68274;SHT30;55104;47.356;19.448;2023-02-14T17:56:05;1.19;85.74
68274;SHT30;55104;47.356;19.448;2023-02-14T17:59:08;1.09;85.89
68274;SHT30;55104;47.356;19.448;2023-02-14T18:02:11;1.07;86.39
68274;SHT30;55104;47.356;19.448;2023-02-14T18:05:14;0.94;86.08
68274;SHT30;55104;47.356;19.448;2023-02-14T18:08:17;0.85;86.25
68274;SHT30;55104;47.356;19.448;2023-02-14T18:11:23;0.77;86.76
68274;SHT30;55104;47.356;19.448;2023-02-14T18:14:26;0.83;86.97
68274;SHT30;55104;47.356;19.448;2023-02-14T18:17:29;0.76;86.76
68274;SHT30;55104;47.356;19.448;2023-02-14T18:20:31;0.61;86.30
68274;SHT30;55104;47.356;19.448;2023-02-14T18:23:33;0.57;87.04
68274;SHT30;55104;47.356;19.448;2023-02-14T18:26:37;0.50;87.46
68274;SHT30;55104;47.356;19.448;2023-02-14T18:29:41;0.50;87.66
68274;SHT30;55104;47.356;19.448;2023-02-14T18:32:44;0.45;87.80
68274;SHT30;55104;47.356;19.448;2023-02-14T18:35:46;0.41;88.09
68274;SHT30;55104;47.356;19.448;2023-02-14T18:38:48;0.39;87.93
68274;SHT30;55104;47.356;19.448;2023-02-14T18:41:51;0.30;88.20
68274;SHT30;55104;47.356;19.448;2023-02-14T18:44:53;0.29;88.71
68274;SHT30;55104;47.356;19.448;2023-02-14T18:47:58;0.30;88.88
68274;SHT30;55104;47.356;19.448;2023-02-14T18:51:09;0.21;88.75
68274;SHT30;55104;47.356;19.448;2023-02-14T18:54:11;0.18;88.61
68274;SHT30;55104;47.356;19.448;2023-02-14T18:57:14;0.12;88.09
68274;SHT30;55104;47.356;19.448;2023-02-14T19:00:16;0.06;87.22
68274;SHT30;55104;47.356;19.448;2023-02-14T19:03:19;0.06;87.90
68274;SHT30;55104;47.356;19.448;2023-02-14T19:06:22;0.08;88.38
68274;SHT30;55104;47.356;19.448;2023-02-14T19:09:24;0.02;88.77
68274;SHT30;55104;47.356;19.448;2023-02-14T19:12:32;0.05;88.64
68274;SHT30;55104;47.356;19.448;2023-02-14T19:15:35;0.01;88.14
68274;SHT30;55104;47.356;19.448;2023-02-14T19:18:37;-0.09;88.80
68274;SHT30;55104;47.356;19.448;2023-02-14T19:21:40;-0.14;88.97
68274;SHT30;55104;47.356;19.448;2023-02-14T19:24:42;-0.22;89.37
68274;SHT30;55104;47.356;19.448;2023-02-14T19:27:45;-0.23;89.34
68274;SHT30;55104;47.356;19.448;2023-02-14T19:30:48;-0.24;89.07
68274;SHT30;55104;47.356;19.448;2023-02-14T19:33:50;-0.29;88.30
68274;SHT30;55104;47.356;19.448;2023-02-14T19:36:53;-0.33;88.53
68274;SHT30;55104;47.356;19.448;2023-02-14T19:39:57;-0.36;88.57
68274;SHT30;55104;47.356;19.448;2023-02-14T19:42:59;-0.44;89.55
68274;SHT30;55104;47.356;19.448;2023-02-14T19:46:02;-0.40;89.50
68274;SHT30;55104;47.356;19.448;2023-02-14T19:49:10;-0.37;89.22
68274;SHT30;55104;47.356;19.448;2023-02-14T19:52:14;-0.47;89.28
68274;SHT30;55104;47.356;19.448;2023-02-14T19:55:31;-0.54;89.97
68274;SHT30;55104;47.356;19.448;2023-02-14T19:58:33;-0.58;89.98
68274;SHT30;55104;47.356;19.448;2023-02-14T20:01:40;-0.64;90.02
68274;SHT30;55104;47.356;19.448;2023-02-14T20:04:43;-0.67;90.16
68274;SHT30;55104;47.356;19.448;2023-02-14T20:07:45;-0.74;89.03
68274;SHT30;55104;47.356;19.448;2023-02-14T20:10:50;-0.77;90.18
68274;SHT30;55104;47.356;19.448;2023-02-14T20:13:53;-0.81;90.64
68274;SHT30;55104;47.356;19.448;2023-02-14T20:16:59;-0.82;90.97
68274;SHT30;55104;47.356;19.448;2023-02-14T20:20:02;-0.84;91.08
68274;SHT30;55104;47.356;19.448;2023-02-14T20:23:06;-0.85;90.83
68274;SHT30;55104;47.356;19.448;2023-02-14T20:26:13;-0.85;90.59
68274;SHT30;55104;47.356;19.448;2023-02-14T20:29:17;-0.88;91.06
68274;SHT30;55104;47.356;19.448;2023-02-14T20:32:21;-0.92;90.72
68274;SHT30;55104;47.356;19.448;2023-02-14T20:35:23;-0.96;90.56
68274;SHT30;55104;47.356;19.448;2023-02-14T20:38:26;-1.03;89.48
68274;SHT30;55104;47.356;19.448;2023-02-14T20:41:29;-1.03;90.37
68274;SHT30;55104;47.356;19.448;2023-02-14T20:44:33;-1.06;90.59
68274;SHT30;55104;47.356;19.448;2023-02-14T20:47:36;-1.02;91.22
68274;SHT30;55104;47.356;19.448;2023-02-14T20:50:38;-1.00;91.45
68274;SHT30;55104;47.356;19.448;2023-02-14T20:53:42;-1.05;91.18
68274;SHT30;55104;47.356;19.448;2023-02-14T20:56:45;-1.06;90.79
68274;SHT30;55104;47.356;19.448;2023-02-14T20:59:48;-1.13;90.36
68274;SHT30;55104;47.356;19.448;2023-02-14T21:02:50;-1.17;90.45
68274;SHT30;55104;47.356;19.448;2023-02-14T21:05:53;-1.17;91.18
68274;SHT30;55104;47.356;19.448;2023-02-14T21:08:56;-1.27;90.51